Time;durP1;ratioP1;P1;durP2;ratioP2;P2;SDS_P1;SDS_P2;PMS_P1;PMS_P2;Temp;Humidity;BMP_temperature;BMP_pressure;BME280_temperature;BME280_humidity;BME280_pressure;Samples;Min_cycle;Max_cycle;Signal;HPM_P1;HPM_P2
2023/01/15 00:00:51;;;;;;;;;1.67;1.67;;;;;10.49;71.07;100098.63;5096809;27;47601;-65
2023/01/15 00:03:17;;;;;;;;;5.00;2.00;;;;;10.53;71.41;100098.69;5113912;27;45135;-64
2023/01/15 00:05:42;;;;;;;;;2.00;2.00;;;;;10.55;71.41;100104.94;5095241;27;45060;-66
2023/01/15 00:08:07;;;;;;;;;5.67;4.00;;;;;10.37;70.54;100081.50;5109761;27;45321;-64
2023/01/15 00:10:34;;;;;;;;;1.00;1.00;;;;;10.30;70.16;100078.69;5111412;27;45294;-68
2023/01/15 00:13:00;;;;;;;;;1.33;0.33;;;;;10.34;69.49;100098.34;5111849;27;45245;-65
2023/01/15 00:15:25;;;;;;;;;0.33;0.33;;;;;10.11;70.52;100072.16;5112788;27;45096;-65
2023/01/15 00:17:51;;;;;;;;;0.33;0.33;;;;;10.12;70.50;100079.25;5110730;27;46838;-65
2023/01/15 00:20:16;;;;;;;;;0.33;0.33;;;;;9.39;69.96;99954.38;5110755;27;45633;-66
2023/01/15 00:22:41;;;;;;;;;1.00;1.00;;;;;10.29;70.97;100111.59;5111258;27;45138;-63
2023/01/15 00:28:04;;;;;;;;;1.00;1.00;;;;;10.12;70.66;100070.38;5031874;27;45406;-63
2023/01/15 00:30:29;;;;;;;;;3.00;1.67;;;;;10.10;70.46;100070.34;5092698;27;45966;-64
2023/01/15 00:32:56;;;;;;;;;2.00;2.00;;;;;10.09;70.48;100094.34;5089413;27;45505;-63
2023/01/15 00:35:22;;;;;;;;;0.33;0.33;;;;;10.07;70.90;100091.63;5096798;27;45435;-62
2023/01/15 00:37:48;;;;;;;;;0.00;0.00;;;;;10.13;70.78;100115.78;5091088;27;45532;-63
2023/01/15 00:40:16;;;;;;;;;2.00;1.00;;;;;10.00;70.38;100100.41;5077640;27;46181;-62
2023/01/15 00:42:42;;;;;;;;;2.00;1.00;;;;;10.04;71.66;100109.38;5097063;27;45496;-62
2023/01/15 00:45:09;;;;;;;;;3.67;2.00;;;;;10.03;71.27;100094.22;5097052;27;45459;-62
2023/01/15 00:47:36;;;;;;;;;6.00;3.00;;;;;10.06;71.59;100102.28;5095973;27;45382;-63
2023/01/15 00:50:03;;;;;;;;;3.33;3.33;;;;;10.12;71.85;100110.41;5093907;27;45907;-62
2023/01/15 00:52:28;;;;;;;;;1.33;1.33;;;;;10.17;71.15;100099.81;5094432;27;45315;-62
2023/01/15 00:54:54;;;;;;;;;2.00;2.00;;;;;10.18;70.77;100105.19;5095635;27;45407;-65
2023/01/15 00:57:20;;;;;;;;;2.00;2.00;;;;;10.18;70.90;100090.91;5096517;27;45642;-65
2023/01/15 00:59:45;;;;;;;;;5.67;4.00;;;;;10.18;70.74;100091.84;5095714;27;45483;-63
2023/01/15 01:02:10;;;;;;;;;1.00;1.00;;;;;10.11;70.98;100112.19;5094131;27;45419;-62
2023/01/15 01:04:36;;;;;;;;;2.00;2.00;;;;;10.02;70.38;100082.66;5095544;27;45366;-64
2023/01/15 01:07:01;;;;;;;;;2.33;1.00;;;;;10.18;70.59;100091.84;5076860;27;45406;-63
2023/01/15 01:09:26;;;;;;;;;8.25;7.75;;;;;10.11;70.74;100079.22;5095680;27;45515;-64
2023/01/15 01:11:52;;;;;;;;;8.00;6.00;;;;;10.23;70.33;100090.13;5095703;27;45449;-63
2023/01/15 01:14:17;;;;;;;;;7.00;4.75;;;;;9.96;70.44;100040.75;5095585;27;45504;-63
2023/01/15 01:16:43;;;;;;;;;3.33;3.00;;;;;10.11;70.39;100081.91;5078067;27;45591;-62
2023/01/15 01:19:15;;;;;;;;;4.00;3.00;;;;;10.15;70.86;100097.13;5094840;27;46321;-63
2023/01/15 01:21:42;;;;;;;;;2.00;2.00;;;;;10.17;70.02;100105.16;5093319;27;45424;-63
2023/01/15 01:24:10;;;;;;;;;2.33;1.00;;;;;10.06;70.82;100100.50;5094321;27;45509;-63
2023/01/15 01:26:35;;;;;;;;;0.67;0.33;;;;;10.13;70.31;100117.56;5095665;27;45705;-63
2023/01/15 01:29:02;;;;;;;;;1.00;1.00;;;;;10.13;70.18;100104.22;5095427;27;45379;-62
2023/01/15 01:31:27;;;;;;;;;1.00;1.00;;;;;10.05;69.85;100087.16;5094520;27;45531;-63
2023/01/15 01:33:55;;;;;;;;;6.33;4.33;;;;;10.14;70.40;100096.19;5090744;27;45306;-62
2023/01/15 01:36:31;;;;;;;;;5.00;3.00;;;;;10.01;69.88;100083.50;5095886;27;45326;-65
2023/01/15 01:38:57;;;;;;;;;2.00;0.00;;;;;9.95;68.93;100095.00;5094836;27;45478;-63
2023/01/15 01:41:23;;;;;;;;;3.33;2.67;;;;;10.06;69.54;100120.97;5093209;27;45396;-63
2023/01/15 01:43:59;;;;;;;;;3.67;1.00;;;;;10.05;69.77;100128.09;5098559;27;45127;-63
2023/01/15 01:46:25;;;;;;;;;7.67;3.00;;;;;10.00;69.50;100111.09;5095228;27;45487;-62
2023/01/15 01:48:55;;;;;;;;;2.00;2.00;;;;;9.88;69.04;100094.84;5086607;27;45447;-64
2023/01/15 01:51:25;;;;;;;;;3.00;1.33;;;;;9.78;69.20;100085.75;5076008;27;45471;-62
2023/01/15 01:53:51;;;;;;;;;1.00;1.00;;;;;9.98;68.81;100126.16;5096031;27;45558;-62
2023/01/15 01:56:17;;;;;;;;;0.00;0.00;;;;;9.95;68.03;100126.13;5096130;27;45414;-64
2023/01/15 01:58:47;;;;;;;;;0.00;0.00;;;;;9.94;68.93;100134.97;5093653;27;45301;-62
2023/01/15 02:01:12;;;;;;;;;1.67;1.67;;;;;9.92;68.42;100132.28;5095392;27;45456;-64
2023/01/15 02:03:38;;;;;;;;;3.00;0.00;;;;;9.93;68.51;100134.09;5078297;27;45571;-63
2023/01/15 02:06:08;;;;;;;;;6.75;5.00;;;;;9.91;68.89;100111.78;5096631;27;45446;-64
2023/01/15 02:08:34;;;;;;;;;2.00;0.00;;;;;10.00;68.52;100127.09;5095255;27;46705;-64
2023/01/15 02:11:00;;;;;;;;;5.67;2.00;;;;;9.12;67.85;99983.16;5092526;27;45474;-63
2023/01/15 02:14:07;;;;;;;;;3.00;2.00;;;;;9.98;68.32;100139.50;5075983;27;45609;-64
2023/01/15 02:16:39;;;;;;;;;2.00;0.00;;;;;9.96;68.38;100150.16;5076655;27;45680;-62
2023/01/15 02:19:28;;;;;;;;;1.00;0.00;;;;;9.94;68.50;100157.22;5083499;27;46514;-62
2023/01/15 02:22:10;;;;;;;;;0.00;0.00;;;;;9.91;68.18;100157.16;5071894;27;45629;-63
2023/01/15 02:24:41;;;;;;;;;1.00;0.00;;;;;9.88;68.11;100156.19;5074271;27;45436;-62
2023/01/15 02:27:15;;;;;;;;;5.00;1.00;;;;;9.73;68.36;100141.72;5073013;27;45800;-63
2023/01/15 02:29:47;;;;;;;;;1.67;1.67;;;;;9.81;67.95;100163.19;5082897;27;45931;-63
2023/01/15 02:32:30;;;;;;;;;2.00;1.00;;;;;9.76;68.00;100173.75;5087423;27;45166;-63
2023/01/15 02:35:03;;;;;;;;;1.00;1.00;;;;;9.69;68.56;100177.19;5098795;27;45107;-63
2023/01/15 02:37:32;;;;;;;;;2.00;0.33;;;;;9.64;68.56;100151.28;5085212;27;45340;-62
2023/01/15 02:40:00;;;;;;;;;2.00;1.00;;;;;9.72;68.50;100166.56;5082210;27;47781;-61
2023/01/15 02:42:28;;;;;;;;;3.00;1.00;;;;;9.55;68.76;100152.91;5088869;27;45271;-62
2023/01/15 02:44:56;;;;;;;;;0.00;0.00;;;;;9.72;68.43;100181.69;5090344;27;45122;-63
2023/01/15 02:47:26;;;;;;;;;0.00;0.00;;;;;9.73;68.68;100171.06;5089838;27;45175;-63
2023/01/15 02:49:58;;;;;;;;;1.67;1.00;;;;;9.72;68.13;100171.03;5083865;27;45934;-62
2023/01/15 02:52:40;;;;;;;;;1.00;1.00;;;;;9.74;68.70;100179.94;5080555;27;45391;-63
2023/01/15 02:55:18;;;;;;;;;5.00;2.00;;;;;9.67;68.82;100180.66;5069143;27;45458;-62
2023/01/15 02:57:46;;;;;;;;;1.00;1.00;;;;;9.70;68.36;100189.66;5085023;27;45387;-62
2023/01/15 03:00:15;;;;;;;;;0.00;0.00;;;;;9.63;68.66;100176.16;5085962;27;46202;-63
2023/01/15 03:02:46;;;;;;;;;1.67;1.00;;;;;9.66;69.10;100174.44;5088290;27;45179;-64
2023/01/15 03:05:21;;;;;;;;;0.00;0.00;;;;;9.51;69.56;100171.47;5088276;27;45423;-62
2023/01/15 03:08:07;;;;;;;;;0.00;0.00;;;;;9.61;69.31;100212.56;5087586;27;45156;-61
2023/01/15 03:10:47;;;;;;;;;4.00;1.00;;;;;9.58;68.75;100213.38;5079649;27;45406;-62
2023/01/15 03:13:23;;;;;;;;;2.00;2.00;;;;;9.58;69.17;100200.94;5105100;27;45763;-63
2023/01/15 03:18:49;;;;;;;;;2.00;1.00;;;;;9.32;69.17;100187.06;5111604;27;45131;-61
2023/01/15 03:21:21;;;;;;;;;3.00;1.00;;;;;9.40;69.36;100204.13;5099009;27;46838;-63
2023/01/15 03:23:52;;;;;;;;;1.33;1.33;;;;;9.38;69.95;100205.84;5096552;27;45571;-62
2023/01/15 03:26:17;;;;;;;;;0.00;0.00;;;;;9.44;69.99;100218.44;5094705;27;45633;-62
2023/01/15 03:28:45;;;;;;;;;4.00;2.67;;;;;9.39;69.48;100202.31;5093949;27;45379;-62
2023/01/15 03:31:10;;;;;;;;;2.00;0.33;;;;;9.45;70.51;100222.00;5079816;27;46400;-62
2023/01/15 03:33:36;;;;;;;;;0.67;0.67;;;;;9.40;70.00;100211.22;5098298;27;58865;-61
2023/01/15 03:36:01;;;;;;;;;2.00;0.00;;;;;9.40;70.58;100216.53;5103162;27;45391;-62
2023/01/15 03:38:34;;;;;;;;;1.67;0.67;;;;;9.43;69.66;100210.41;5093116;27;45255;-62
2023/01/15 03:41:19;;;;;;;;;0.33;0.00;;;;;9.35;69.49;100208.44;5080737;27;46108;-61
2023/01/15 03:44:09;;;;;;;;;1.33;0.67;;;;;9.29;69.97;100205.66;5091775;27;45589;-62
2023/01/15 03:46:42;;;;;;;;;1.00;1.00;;;;;9.25;68.64;100206.44;5097225;27;45417;-63
2023/01/15 03:49:33;;;;;;;;;3.00;1.00;;;;;9.16;68.30;100193.81;5097199;27;45409;-61
2023/01/15 03:52:17;;;;;;;;;0.00;0.00;;;;;9.12;69.47;100197.25;5093338;27;46494;-62
2023/01/15 03:54:52;;;;;;;;;0.00;0.00;;;;;9.14;69.32;100195.53;5095761;27;45486;-63
2023/01/15 03:57:36;;;;;;;;;4.00;0.00;;;;;9.12;69.63;100207.91;5094376;27;45461;-61
2023/01/15 04:00:08;;;;;;;;;2.67;1.00;;;;;9.14;70.18;100203.53;5097173;27;45358;-63
2023/01/15 04:02:37;;;;;;;;;1.00;1.00;;;;;9.15;69.70;100210.66;5097286;27;45596;-64
2023/01/15 04:05:03;;;;;;;;;0.00;0.00;;;;;9.11;69.43;100207.91;5101721;27;45503;-61
2023/01/15 04:07:30;;;;;;;;;2.33;1.00;;;;;9.14;69.32;100208.88;5087221;27;45479;-64
2023/01/15 04:09:57;;;;;;;;;1.00;1.00;;;;;9.12;69.09;100204.34;5097140;27;45715;-62
2023/01/15 04:12:23;;;;;;;;;1.00;0.33;;;;;9.12;68.92;100207.91;5097010;27;45636;-63
2023/01/15 04:14:48;;;;;;;;;0.00;0.00;;;;;9.02;68.85;100180.19;5097568;27;45327;-66
2023/01/15 04:17:13;;;;;;;;;0.00;0.00;;;;;9.07;68.50;100174.03;5100970;27;45591;-66
2023/01/15 04:19:39;;;;;;;;;3.00;1.00;;;;;9.12;68.61;100185.69;5093303;27;51885;-62
2023/01/15 04:22:04;;;;;;;;;0.00;0.00;;;;;9.00;68.11;100157.91;5091540;27;45438;-62
2023/01/15 04:24:29;;;;;;;;;0.00;0.00;;;;;8.97;67.70;100148.94;5082284;27;55311;-61
2023/01/15 04:26:55;;;;;;;;;1.67;1.00;;;;;8.96;68.05;100157.78;5096599;27;45329;-61
2023/01/15 04:29:20;;;;;;;;;0.67;0.67;;;;;8.97;67.36;100164.94;5095452;27;45440;-62
2023/01/15 04:31:45;;;;;;;;;0.00;0.00;;;;;9.07;67.25;100179.38;5094814;27;45511;-63
2023/01/15 04:34:11;;;;;;;;;0.00;0.00;;;;;8.97;66.22;100172.91;5094892;27;45416;-61
2023/01/15 04:36:36;;;;;;;;;0.00;0.00;;;;;8.93;65.94;100177.28;5097154;27;45361;-62
2023/01/15 04:39:04;;;;;;;;;0.00;0.00;;;;;9.03;65.97;100194.38;5097218;27;45279;-62
2023/01/15 04:44:14;;;;;;;;;0.00;0.00;;;;;8.98;65.16;100207.59;5093494;27;44958;-63
2023/01/15 04:46:44;;;;;;;;;0.00;0.00;;;;;8.96;64.86;100221.72;5095728;27;45302;-63
2023/01/15 04:49:13;;;;;;;;;0.00;0.00;;;;;8.92;65.47;100233.19;5097059;27;45651;-62
2023/01/15 04:51:38;;;;;;;;;0.00;0.00;;;;;8.76;65.39;100207.94;5096366;27;45506;-62
2023/01/15 04:54:08;;;;;;;;;0.00;0.00;;;;;8.88;65.52;100226.91;5098430;27;45437;-62
2023/01/15 04:56:55;;;;;;;;;1.00;0.00;;;;;8.85;64.49;100210.81;5096074;27;45260;-62
2023/01/15 04:59:23;;;;;;;;;0.00;0.00;;;;;8.82;64.62;100226.72;5096130;27;45287;-62
2023/01/15 05:01:49;;;;;;;;;0.00;0.00;;;;;8.75;64.84;100227.44;5094015;27;46154;-62
2023/01/15 05:04:15;;;;;;;;;0.00;0.00;;;;;8.74;64.71;100222.97;5095137;27;45250;-62
2023/01/15 05:06:40;;;;;;;;;0.00;0.00;;;;;8.72;64.95;100238.03;5095603;27;45310;-61
2023/01/15 05:09:06;;;;;;;;;1.00;0.00;;;;;8.73;64.13;100223.81;5096109;27;45324;-62
2023/01/15 05:11:37;;;;;;;;;0.00;0.00;;;;;8.59;63.27;100210.16;5094317;27;46079;-62
2023/01/15 05:14:04;;;;;;;;;1.00;0.00;;;;;8.66;63.64;100233.41;5095920;27;45253;-63
2023/01/15 05:16:30;;;;;;;;;0.00;0.00;;;;;8.69;63.85;100249.47;5077331;27;45397;-62
2023/01/15 05:19:01;;;;;;;;;0.00;0.00;;;;;8.69;63.70;100254.81;5095765;27;45425;-64
2023/01/15 05:21:32;;;;;;;;;0.00;0.00;;;;;8.67;63.79;100256.53;5091577;27;46403;-62
2023/01/15 05:24:00;;;;;;;;;0.00;0.00;;;;;8.50;63.98;100216.16;5075123;27;45335;-62
2023/01/15 05:26:27;;;;;;;;;2.00;1.00;;;;;8.74;62.50;100254.94;5095571;27;45544;-65
2023/01/15 05:28:54;;;;;;;;;0.00;0.00;;;;;8.76;62.97;100250.53;5096172;27;45628;-64
2023/01/15 05:31:20;;;;;;;;;0.00;0.00;;;;;8.76;62.39;100245.22;5096892;27;46534;-63
2023/01/15 05:33:47;;;;;;;;;2.00;0.00;;;;;8.78;62.25;100251.50;5097430;27;45467;-61
2023/01/15 05:36:19;;;;;;;;;5.00;0.00;;;;;8.43;61.58;100192.88;5095730;27;45538;-62
2023/01/15 05:38:45;;;;;;;;;0.00;0.00;;;;;8.39;62.92;100194.53;5095545;27;45441;-61
2023/01/15 05:44:00;;;;;;;;;0.00;0.00;;;;;8.70;61.27;100269.94;5094086;27;45703;-62
2023/01/15 05:46:25;;;;;;;;;0.00;0.00;;;;;8.52;61.46;100235.75;5095966;27;45326;-62
2023/01/15 05:48:50;;;;;;;;;0.00;0.00;;;;;8.69;61.59;100272.56;5096125;27;45433;-62
2023/01/15 05:51:16;;;;;;;;;1.00;0.00;;;;;8.48;61.50;100240.09;5094579;27;46075;-62
2023/01/15 05:53:41;;;;;;;;;0.00;0.00;;;;;8.72;62.17;100288.63;5090421;27;45334;-63
2023/01/15 05:56:07;;;;;;;;;0.00;0.00;;;;;8.69;61.44;100283.22;5097477;27;45248;-63
2023/01/15 05:58:33;;;;;;;;;1.00;0.00;;;;;8.68;61.43;100284.97;5079050;27;45424;-64
2023/01/15 06:00:59;;;;;;;;;0.00;0.00;;;;;8.54;61.60;100249.09;5098686;27;46908;-63
2023/01/15 06:03:26;;;;;;;;;1.00;0.00;;;;;8.71;60.71;100292.13;5101001;27;45290;-62
2023/01/15 06:05:52;;;;;;;;;0.33;0.00;;;;;8.72;61.98;100304.59;5098034;27;45500;-61
2023/01/15 06:08:18;;;;;;;;;0.00;0.00;;;;;8.66;61.76;100287.59;5082368;27;45382;-62
2023/01/15 06:10:44;;;;;;;;;0.00;0.00;;;;;8.52;60.96;100280.09;5085374;27;45441;-64
2023/01/15 06:13:09;;;;;;;;;1.00;1.00;;;;;8.61;61.62;100306.97;5085782;27;45483;-63
2023/01/15 06:15:35;;;;;;;;;0.67;0.00;;;;;8.64;59.83;100317.69;5085228;28;45338;-62
2023/01/15 06:18:00;;;;;;;;;0.00;0.00;;;;;8.58;60.56;100314.88;5074269;28;45295;-63
2023/01/15 06:20:26;;;;;;;;;1.33;0.00;;;;;8.59;60.34;100327.34;5077802;28;46845;-61
2023/01/15 06:22:51;;;;;;;;;0.00;0.00;;;;;8.48;60.02;100311.06;5072796;28;45315;-61
2023/01/15 06:25:16;;;;;;;;;0.00;0.00;;;;;8.48;59.91;100317.28;5074287;28;45508;-62
2023/01/15 06:27:43;;;;;;;;;0.33;0.33;;;;;8.49;60.39;100326.16;5079472;28;45350;-63
2023/01/15 06:30:10;;;;;;;;;0.00;0.00;;;;;8.47;59.91;100330.56;5073441;28;45400;-61
2023/01/15 06:32:36;;;;;;;;;1.00;0.00;;;;;7.86;60.76;100221.47;5072785;28;45529;-64
2023/01/15 06:35:01;;;;;;;;;0.00;0.00;;;;;8.43;60.76;100326.00;5074483;28;45560;-61
2023/01/15 06:37:26;;;;;;;;;0.00;0.00;;;;;8.41;59.80;100335.66;5056010;28;45388;-62
2023/01/15 06:39:52;;;;;;;;;0.00;0.00;;;;;8.33;60.13;100332.78;5055399;28;55115;-63
2023/01/15 06:47:46;;;;;;;;;0.00;0.00;;;;;8.33;61.17;100363.81;5076940;28;45421;-62
2023/01/15 06:50:12;;;;;;;;;0.00;0.00;;;;;8.29;59.95;100363.72;5075495;28;46476;-63
2023/01/15 06:52:38;;;;;;;;;0.00;0.00;;;;;8.27;60.72;100367.22;5073119;27;45431;-61
2023/01/15 06:55:03;;;;;;;;;0.00;0.00;;;;;8.24;60.69;100370.69;5074043;28;45327;-62
2023/01/15 06:57:29;;;;;;;;;1.00;0.00;;;;;8.10;60.94;100351.66;5064030;28;45690;-64
2023/01/15 06:59:54;;;;;;;;;0.67;0.00;;;;;8.16;60.06;100377.53;5051815;28;46878;-63
2023/01/15 07:02:20;;;;;;;;;0.67;0.00;;;;;8.20;61.33;100386.50;5071703;28;45619;-61
2023/01/15 07:04:46;;;;;;;;;0.00;0.00;;;;;8.16;61.24;100387.28;5055743;28;45436;-62
2023/01/15 07:07:13;;;;;;;;;1.00;1.00;;;;;8.19;61.09;100412.22;5074497;28;45580;-62
2023/01/15 07:09:39;;;;;;;;;0.00;0.00;;;;;8.22;60.90;100409.66;5054391;28;45749;-62
2023/01/15 07:12:04;;;;;;;;;0.00;0.00;;;;;7.96;60.51;100353.00;5069822;27;45494;-63
2023/01/15 07:14:30;;;;;;;;;0.00;0.00;;;;;8.20;60.61;100406.06;5074244;28;45330;-63
2023/01/15 07:16:58;;;;;;;;;0.00;0.00;;;;;8.20;60.86;100408.72;5074571;27;45390;-63
2023/01/15 07:19:23;;;;;;;;;0.00;0.00;;;;;8.20;60.70;100400.75;5075413;27;46261;-62
2023/01/15 07:21:49;;;;;;;;;0.00;0.00;;;;;8.15;60.97;100399.69;5077189;28;45763;-61
2023/01/15 07:24:15;;;;;;;;;0.00;0.00;;;;;8.14;60.89;100415.63;5076554;28;46224;-61
2023/01/15 07:26:41;;;;;;;;;0.00;0.00;;;;;8.13;60.64;100420.00;5078056;28;45369;-63
2023/01/15 07:29:07;;;;;;;;;0.00;0.00;;;;;8.08;60.55;100416.31;5076043;27;46149;-62
2023/01/15 07:31:32;;;;;;;;;1.00;1.00;;;;;7.86;60.89;100390.81;5076962;28;45484;-62
2023/01/15 07:33:58;;;;;;;;;8.00;8.00;;;;;8.02;61.18;100434.72;5067505;27;45503;-62
2023/01/15 07:36:23;;;;;;;;;9.75;5.75;;;;;8.00;61.27;100429.41;5076976;28;45385;-61
2023/01/15 07:38:49;;;;;;;;;3.75;2.00;;;;;7.99;61.75;100434.66;5075767;27;45540;-62
2023/01/15 07:49:45;;;;;;;;;0.00;0.00;;;;;8.06;61.35;100413.59;5055369;28;45619;-63
2023/01/15 07:52:15;;;;;;;;;2.00;0.00;;;;;7.91;61.92;100397.16;5081396;27;45395;-63
2023/01/15 07:54:41;;;;;;;;;0.50;0.00;;;;;7.18;62.24;100279.66;5085264;28;45421;-62
2023/01/15 07:57:07;;;;;;;;;0.00;0.00;;;;;8.01;62.37;100412.56;5079374;27;45602;-62
2023/01/15 07:59:33;;;;;;;;;0.75;0.75;;;;;8.04;62.56;100427.72;5092127;28;45139;-62
2023/01/15 08:01:58;;;;;;;;;1.00;0.00;;;;;8.03;62.02;100421.47;5092984;28;45001;-61
2023/01/15 08:04:23;;;;;;;;;0.00;0.00;;;;;7.80;62.02;100383.53;5093223;28;45088;-62
2023/01/15 08:06:49;;;;;;;;;2.00;0.50;;;;;8.02;62.26;100413.44;5089344;27;46167;-62
2023/01/15 08:09:14;;;;;;;;;1.00;0.00;;;;;7.98;62.49;100411.56;5094203;28;45481;-64
2023/01/15 08:17:08;;;;;;;;;0.00;0.00;;;;;8.05;62.79;100426.84;5105040;27;45635;-64
2023/01/15 08:19:33;;;;;;;;;0.00;0.00;;;;;8.04;62.72;100427.72;5112064;27;45544;-61
2023/01/15 08:22:01;;;;;;;;;0.25;0.00;;;;;8.02;62.33;100425.00;5109722;27;44893;-61
2023/01/15 08:24:27;;;;;;;;;0.75;0.75;;;;;8.02;63.35;100418.78;5113801;27;45232;-61
2023/01/15 08:26:53;;;;;;;;;1.50;0.25;;;;;8.03;63.19;100431.22;5113178;27;44971;-61
2023/01/15 08:29:20;;;;;;;;;1.00;1.00;;;;;8.05;63.13;100421.53;5108060;27;46273;-61
2023/01/15 08:31:45;;;;;;;;;1.50;0.00;;;;;8.05;63.63;100419.78;5096095;27;45541;-62
2023/01/15 08:34:11;;;;;;;;;0.50;0.00;;;;;8.06;62.62;100434.88;5102069;27;45438;-61
2023/01/15 08:36:36;;;;;;;;;0.00;0.00;;;;;7.83;63.50;100409.31;5093176;27;45344;-61
2023/01/15 08:39:03;;;;;;;;;1.75;1.00;;;;;7.98;63.17;100425.75;5096521;27;45488;-63
2023/01/15 08:41:29;;;;;;;;;0.00;0.00;;;;;8.06;63.24;100434.00;5107321;27;45070;-61
2023/01/15 08:43:55;;;;;;;;;0.00;0.00;;;;;8.03;62.88;100436.56;5108780;27;45124;-61
2023/01/15 08:46:20;;;;;;;;;3.50;0.00;;;;;8.07;62.98;100438.47;5106734;27;44996;-63
2023/01/15 08:48:47;;;;;;;;;0.00;0.00;;;;;8.07;63.18;100428.72;5112672;27;45458;-62
2023/01/15 08:51:12;;;;;;;;;3.00;0.00;;;;;8.10;62.52;100419.91;5103139;27;45532;-62
2023/01/15 08:53:38;;;;;;;;;0.33;0.33;;;;;8.05;62.40;100416.22;5104866;27;45732;-63
2023/01/15 08:56:04;;;;;;;;;0.00;0.00;;;;;8.09;62.87;100424.34;5111785;27;45258;-63
2023/01/15 08:58:32;;;;;;;;;2.00;0.33;;;;;7.97;62.00;100396.44;5110403;27;46148;-71
2023/01/15 09:01:05;;;;;;;;;2.00;0.00;;;;;8.17;62.41;100421.94;5088469;27;45428;-66
2023/01/15 09:03:31;;;;;;;;;2.00;1.00;;;;;8.20;61.77;100422.03;5091749;27;45327;-66
2023/01/15 09:06:01;;;;;;;;;0.75;0.75;;;;;8.16;61.49;100406.81;5071312;27;45966;-66
2023/01/15 09:08:27;;;;;;;;;0.00;0.00;;;;;8.27;60.77;100425.78;5096558;27;46377;-64
2023/01/15 09:10:57;;;;;;;;;0.50;0.00;;;;;8.29;60.40;100427.59;5098989;27;45507;-69
2023/01/15 09:13:23;;;;;;;;;1.25;1.00;;;;;8.21;60.63;100417.59;5104176;27;44992;-68
2023/01/15 09:15:48;;;;;;;;;2.50;1.25;;;;;8.32;61.23;100432.13;5071734;27;45352;-67
2023/01/15 09:18:17;;;;;;;;;1.25;1.00;;;;;8.39;60.97;100430.56;5106203;27;45518;-68
2023/01/15 09:20:46;;;;;;;;;0.67;0.67;;;;;8.40;60.69;100433.28;5100140;27;45508;-69
2023/01/15 09:23:12;;;;;;;;;0.50;0.00;;;;;8.11;59.69;100376.50;5104196;27;45216;-67
2023/01/15 09:25:37;;;;;;;;;4.00;1.00;;;;;8.18;59.44;100382.91;5103258;27;45287;-73
2023/01/15 09:28:03;;;;;;;;;3.50;3.50;;;;;8.50;59.58;100437.16;5101715;27;45398;-69
2023/01/15 09:30:28;;;;;;;;;1.00;1.00;;;;;8.42;60.00;100422.66;5110517;27;45516;-69
2023/01/15 09:32:54;;;;;;;;;4.25;4.25;;;;;8.52;59.16;100424.78;5111840;27;44923;-69
2023/01/15 09:35:21;;;;;;;;;2.75;2.75;;;;;8.56;59.15;100428.41;5104001;27;45566;-64
2023/01/15 09:37:53;;;;;;;;;1.25;1.25;;;;;8.56;59.20;100434.63;5106907;27;46457;-68
2023/01/15 09:40:43;;;;;;;;;4.00;1.00;;;;;8.63;59.68;100441.09;5115600;27;45227;-68
2023/01/15 09:43:29;;;;;;;;;1.00;1.00;;;;;8.67;58.98;100441.19;5110807;27;45115;-68
2023/01/15 09:46:01;;;;;;;;;0.00;0.00;;;;;8.69;58.43;100441.22;5097658;27;45292;-71
2023/01/15 09:48:48;;;;;;;;;2.75;2.00;;;;;8.63;58.79;100422.44;5110287;27;46180;-69
2023/01/15 09:51:42;;;;;;;;;3.00;0.00;;;;;8.64;59.19;100438.44;5112813;27;45002;-70
2023/01/15 09:54:31;;;;;;;;;6.67;1.00;;;;;8.66;58.25;100458.03;5099319;27;45131;-68
2023/01/15 09:56:57;;;;;;;;;0.25;0.25;;;;;8.36;58.08;100398.53;5106996;27;45522;-70
2023/01/15 09:59:30;;;;;;;;;0.25;0.00;;;;;8.71;58.30;100442.22;5107956;27;45414;-71
2023/01/15 10:01:57;;;;;;;;;0.00;0.00;;;;;8.73;58.36;100460.88;5097846;27;45264;-69
2023/01/15 10:04:46;;;;;;;;;1.33;0.00;;;;;8.70;57.98;100461.69;5111216;27;45143;-66
2023/01/15 10:07:20;;;;;;;;;0.00;0.00;;;;;8.59;57.40;100433.84;5104546;27;45224;-66
2023/01/15 10:09:52;;;;;;;;;2.00;0.75;;;;;8.74;58.18;100462.69;5108153;27;45940;-67
2023/01/15 10:12:38;;;;;;;;;2.00;1.00;;;;;8.76;57.93;100461.88;5108551;27;45651;-63
2023/01/15 10:15:12;;;;;;;;;0.00;0.00;;;;;8.79;57.43;100442.41;5114250;27;45417;-68
2023/01/15 10:17:47;;;;;;;;;2.00;0.67;;;;;8.67;57.33;100432.31;5109316;27;45306;-68
2023/01/15 10:20:16;;;;;;;;;0.33;0.33;;;;;8.82;56.27;100459.38;5106866;27;46290;-64
2023/01/15 10:23:02;;;;;;;;;1.50;0.75;;;;;8.81;57.78;100446.94;5112780;27;45052;-68
2023/01/15 10:25:33;;;;;;;;;3.33;0.00;;;;;8.78;57.15;100429.97;5102939;27;45228;-68
2023/01/15 10:28:17;;;;;;;;;4.25;1.25;;;;;8.90;57.35;100448.94;5101183;27;45225;-68
2023/01/15 10:30:48;;;;;;;;;2.00;1.00;;;;;8.95;56.45;100457.06;5107775;27;46256;-70
2023/01/15 10:34:01;;;;;;;;;0.67;0.00;;;;;9.02;56.85;100454.63;5102088;27;45429;-68
2023/01/15 10:36:43;;;;;;;;;0.00;0.00;;;;;9.08;56.42;100453.00;5053910;27;45327;-66
2023/01/15 10:39:20;;;;;;;;;2.67;1.00;;;;;9.13;55.80;100435.38;5108825;27;45472;-69
2023/01/15 10:41:57;;;;;;;;;0.00;0.00;;;;;9.22;56.35;100451.59;5102316;27;45367;-66
2023/01/15 10:44:51;;;;;;;;;4.00;3.00;;;;;9.32;55.82;100451.00;5109880;27;45474;-70
2023/01/15 10:47:21;;;;;;;;;3.33;3.33;;;;;9.37;55.86;100448.44;5109833;27;45073;-69
2023/01/15 10:49:49;;;;;;;;;0.00;0.00;;;;;9.34;56.39;100430.59;5108269;27;45603;-68
2023/01/15 10:52:20;;;;;;;;;4.33;1.00;;;;;8.67;55.78;100320.47;5105494;27;46897;-68
2023/01/15 10:54:50;;;;;;;;;3.00;1.00;;;;;9.44;56.02;100454.81;5112879;27;45170;-66
2023/01/15 10:57:38;;;;;;;;;3.00;1.00;;;;;9.51;56.13;100454.13;5114051;27;45231;-70
2023/01/15 11:00:04;;;;;;;;;3.00;2.00;;;;;9.53;55.71;100450.63;5111587;27;45297;-70
2023/01/15 11:02:38;;;;;;;;;1.00;1.00;;;;;9.59;56.00;100466.78;5114769;27;45132;-66
2023/01/15 11:05:04;;;;;;;;;1.00;0.00;;;;;9.59;55.67;100452.56;5114993;27;45306;-67
2023/01/15 11:07:38;;;;;;;;;4.33;2.67;;;;;9.58;55.55;100451.66;5112346;27;45049;-70
2023/01/15 11:10:07;;;;;;;;;0.00;0.00;;;;;9.61;54.85;100440.16;5112197;27;45234;-69
2023/01/15 11:21:14;;;;;;;;;1.00;1.00;;;;;9.64;54.26;100429.56;5096240;28;45094;-69
2023/01/15 11:23:39;;;;;;;;;0.00;0.00;;;;;9.68;54.81;100412.78;5090859;28;45187;-67
2023/01/15 11:26:05;;;;;;;;;0.00;0.00;;;;;9.65;54.10;100418.06;5082039;28;45078;-67
2023/01/15 11:28:42;;;;;;;;;1.33;0.67;;;;;9.67;54.11;100400.31;5093480;28;45080;-67
2023/01/15 11:31:09;;;;;;;;;2.00;2.00;;;;;9.84;54.51;100414.06;5089933;28;45187;-69
2023/01/15 11:33:35;;;;;;;;;2.67;1.00;;;;;9.82;54.48;100406.91;5092877;28;46098;-69
2023/01/15 11:36:05;;;;;;;;;1.33;0.67;;;;;9.94;54.66;100392.03;5087933;28;45108;-66
2023/01/15 11:38:50;;;;;;;;;3.33;1.00;;;;;10.01;53.64;100424.22;5091723;28;45304;-67
2023/01/15 11:41:21;;;;;;;;;1.67;1.00;;;;;9.94;53.23;100399.16;5085658;28;45463;-66
2023/01/15 11:52:16;;;;;;;;;6.00;1.00;;;;;9.88;52.96;100399.94;5094329;28;44997;-66
2023/01/15 11:54:45;;;;;;;;;1.33;1.33;;;;;10.02;52.91;100391.34;5094169;28;45305;-69
2023/01/15 11:57:11;;;;;;;;;7.33;2.67;;;;;10.06;53.04;100412.78;5081434;28;45182;-65
2023/01/15 11:59:37;;;;;;;;;3.00;1.33;;;;;10.06;52.29;100402.09;5080381;28;45451;-66
2023/01/15 12:02:28;;;;;;;;;2.00;0.00;;;;;10.08;52.25;100402.13;5073075;28;45300;-65
2023/01/15 12:05:00;;;;;;;;;2.67;1.00;;;;;10.13;52.42;100400.50;5083275;28;45965;-65
2023/01/15 12:07:25;;;;;;;;;2.00;1.33;;;;;10.17;52.64;100405.03;5073034;28;45339;-65
2023/01/15 12:13:43;;;;;;;;;2.67;1.00;;;;;10.30;51.56;100372.38;5048163;28;45331;-64
2023/01/15 12:16:30;;;;;;;;;0.67;0.67;;;;;10.31;51.13;100363.53;5088062;28;45155;-70
2023/01/15 12:19:12;;;;;;;;;0.00;0.00;;;;;10.21;51.52;100355.25;5088518;28;45100;-69
2023/01/15 12:21:37;;;;;;;;;1.00;1.00;;;;;10.39;51.42;100357.47;5065254;28;45367;-68
2023/01/15 12:24:44;;;;;;;;;0.67;0.67;;;;;10.45;51.33;100352.25;5093461;27;45115;-67
2023/01/15 12:27:43;;;;;;;;;1.00;1.00;;;;;10.48;51.40;100339.84;5040811;28;45346;-65
2023/01/15 12:30:32;;;;;;;;;4.00;1.33;;;;;10.51;51.04;100334.56;5088283;27;45386;-68
2023/01/15 12:33:17;;;;;;;;;1.00;1.00;;;;;10.63;51.19;100341.03;5072159;27;45607;-68
2023/01/15 12:36:03;;;;;;;;;3.33;3.00;;;;;10.67;50.72;100340.22;5076972;28;45496;-66